Friday, July 01, 2016
20:42 UTC
  |  Log In   |  Register Free
Airport Search:

Visalia Municipal Airport
(KVIS)

Visalia Municipal Airport Diagram
No Airport Diagram Available

FAA data valid effective May 26 2016 - Jul 21 2016 (unless otherwise noted).

 
 
 
 
 
 
 
 
 
 
 
 
 
 
Current Aviation Weather for KVIS

Weather Summary


The most recent METAR observation for VIS was updated at: 12:56 UTC
METAR for KVIS is not available. Closest METAR is for KHJO
KVIS  (most recent observation was updatred at 11:95 UTC)
011956Z AUTO 27007KT 10SM CLR 36/15 A2981 RMK AO2 SLP095 T03560150

KHJO  (11.4 nm NE)   (most recent observation was updated at 11:95 UTC)
011953Z AUTO VRB05KT 10SM CLR 37/08 A2980 RMK AO2 SLP091 T03720078

KPTV  (23.6 nm NW)   (most recent observation was updated at 11:95 UTC)
011956Z AUTO 32008KT 10SM CLR 37/12 A2981 RMK AO2 SLP098 T03720117

TAF for KVIS is not available.
KVIS
011721Z 0118/0218 VRB04KT P6SM SKC FM012100 30008KT P6SM SKC FM020700 VRB03KT P6SM SKC

KNLC  (27.1 nm SE)   (most recent observation was updatred at UTC)
0115/0215 VRB06KT 9999 FEW260 QNH2974INS BECMG 0122/0200 26009KT 9999 SKC QNH2969INS FM020500 VRB06KT 9999 FEW260 QNH2974INS T39/0123Z T18/0213Z FS30067


KFAT  (31.6 nm SE)   (most recent observation was updatred at 11:72 UTC)
011721Z 0118/0218 30008KT P6SM SKC FM020700 VRB03KT P6SM SKC
GlobalAir.com is loading additional information.
 Current Weather at VIS
93.0 F° (33.9 C°)

North winds at 0.0 mph
Pressure:
29.82 in
Humidity:
28%
Wind:
North at 0.0 mph
Dew Point:
55.0 F° (12.8 C°)
Visibility:
10.00 mi
VIS NOAA Radar




Find All Airport Services Find A Hotel Find A Rental Car Find A Golf Course Find A Restaurant $100 Hamburger



Airport Weather Forecast for KVIS

Translated METAR for KVIS (1956 UTC)
METAR:
KVIS 011956Z AUTO 27007KT 10SM CLR 36/15 A2981 RMK AO2 SLP095 T03560150
Conditions at:
KVIS (Visalia Muni, CA) observed 1956 UTC 01 July 2016
Temperature:
36°C (96.8°F)
Dewpoint:
15°C (59°F) [RH = 28.7]
Pressure:
29.81 inches Hg (1009.5 mb)
pressure at sea level is 95 in Hg
Winds:
from the W (270 degrees) at 8.1 mph (7 knots: 3.6 m/s)
Visibility:
10 mile(s)
Ceiling:
at least 12,000 feet AGL
Clouds:
Clear below 12,000 feet AGL
Remarks:
site is un-manned
site is automated and HAS a precipitation sensor

Translated TAF for KVIS (Visalia Muni, CA) (1721 UTC)
TAF text:
KVIS 011721Z 0118/0218 VRB04KT P6SM SKC
Forecast period:
Friday Jul 01 2016 18:00 UTC - Saturday Jul 02 2016 18:00 UTC
Forecast type:
FROM: standard forecast or significant change
Winds:
variable wind direction at 4.6 mph (4 knots: 2.1 m/s)
Visibility:
6 or more mile(s) (9.7+ km)
Ceiling:
at least 12,000 feet AGL
Clouds:
Clear Skies
Weather:
no significant weather observed at this time
TAF text:
FM012100 30008KT P6SM SKC
Forecast period:
Friday Jul 01 2016 21:00 UTC - Saturday Jul 02 2016 07:00 UTC
Forecast type:
FROM: standard forecast or significant change
Winds:
from the WNW (300 degrees) at 9.2 mph (8 knots: 4.1 m/s)
Visibility:
6 or more mile(s) (9.7+ km)
Ceiling:
at least 12,000 feet AGL
Clouds:
Clear Skies
Weather:
no significant weather observed at this time
TAF text:
FM020700 VRB03KT P6SM SKC
Forecast period:
Saturday Jul 02 2016 07:00 UTC - Saturday Jul 02 2016 18:00 UTC
Forecast type:
FROM: standard forecast or significant change
Winds:
variable wind direction at 3.5 mph (3 knots: 1.5 m/s)
Visibility:
6 or more mile(s) (9.7+ km)
Ceiling:
at least 12,000 feet AGL
Clouds:
Clear Skies
Weather:
no significant weather observed at this time
FBO's on the Field
FBO Company Facility Photos Services Transportation Aviation Fuel Prices: Prices include tax
Catering Weather Repair Courtesy Rental Type 100LL JetA JetA+ MOGAS 8087
 
Add another FBO Facility Photos Catering Weather Repair Courtesy Rental Type 100LL JetA JetA+ MOGAS 8087
Services Transportation Aviation Fuel Prices: Prices include tax
There are no FBO's currently reporting fuel at VIS. List your FBO now


model-print
model-print
model-print
model-print